Time;durP1;ratioP1;P1;durP2;ratioP2;P2;SDS_P1;SDS_P2;PMS_P1;PMS_P2;Temp;Humidity;BMP_temperature;BMP_pressure;BME280_temperature;BME280_humidity;BME280_pressure;Samples;Min_cycle;Max_cycle;Signal;HPM_P1;HPM_P2
2023/03/11 00:02:15;;;;;;;0.40;0.40;;;;;;;17.41;45.65;100223.59;5093972;28;20099;-36
2023/03/11 00:04:40;;;;;;;0.57;0.57;;;;;;;17.40;45.75;100223.88;5077527;28;20054;-36
2023/03/11 00:07:08;;;;;;;0.30;0.30;;;;;;;17.41;45.59;100228.28;5094594;28;20044;-36
2023/03/11 00:09:34;;;;;;;0.30;0.30;;;;;;;17.40;45.70;100232.97;5094893;28;20378;-37
2023/03/11 00:12:00;;;;;;;0.30;0.30;;;;;;;17.42;45.58;100238.19;5076935;28;20503;-36
2023/03/11 00:14:26;;;;;;;0.40;0.40;;;;;;;17.41;45.50;100239.28;5078918;28;20052;-36
2023/03/11 00:16:51;;;;;;;0.43;0.43;;;;;;;17.41;45.53;100239.28;5099835;28;20088;-36
2023/03/11 00:19:17;;;;;;;0.30;0.30;;;;;;;17.40;45.81;100235.72;5115844;28;20058;-36
2023/03/11 00:21:43;;;;;;;0.40;0.40;;;;;;;17.39;45.78;100234.06;5115131;28;20047;-36
2023/03/11 00:24:09;;;;;;;0.30;0.30;;;;;;;17.40;45.38;100241.22;5096918;28;20098;-37
2023/03/11 00:26:34;;;;;;;0.40;0.40;;;;;;;17.40;45.50;100245.88;5115507;28;20695;-36
2023/03/11 00:29:00;;;;;;;0.40;0.40;;;;;;;17.40;45.72;100251.38;5114801;28;20487;-36
2023/03/11 00:31:26;;;;;;;0.30;0.30;;;;;;;17.41;45.59;100264.88;5114999;27;20047;-36
2023/03/11 00:33:52;;;;;;;0.40;0.40;;;;;;;17.41;45.63;100255.81;5114112;27;20043;-36
2023/03/11 00:36:33;;;;;;;0.30;0.30;;;;;;;17.40;45.59;100263.25;5118182;27;20096;-36
2023/03/11 00:39:01;;;;;;;0.40;0.40;;;;;;;17.40;45.63;100257.75;5092173;28;20085;-36
2023/03/11 00:41:27;;;;;;;0.30;0.30;;;;;;;17.40;45.86;100263.25;5113154;28;20505;-36
2023/03/11 00:43:53;;;;;;;0.40;0.40;;;;;;;17.39;45.54;100269.03;5114723;27;20078;-36
2023/03/11 00:46:19;;;;;;;0.40;0.40;;;;;;;17.40;45.61;100268.75;5099948;28;20052;-36
2023/03/11 00:48:44;;;;;;;0.40;0.40;;;;;;;17.41;45.76;100273.16;5076192;28;20054;-36
2023/03/11 00:51:13;;;;;;;0.40;0.40;;;;;;;17.40;45.72;100271.50;5075890;28;20055;-36
2023/03/11 00:53:38;;;;;;;;;;;;;;;17.39;45.71;100269.84;5059714;28;20044;-36
2023/03/11 00:56:06;;;;;;;0.30;0.30;;;;;;;17.39;45.69;100269.03;5094680;28;20367;-36
2023/03/11 00:58:34;;;;;;;0.50;0.50;;;;;;;17.40;45.65;100271.50;5094512;28;20552;-36
2023/03/11 01:01:05;;;;;;;0.30;0.30;;;;;;;17.40;45.68;100285.28;5094373;28;20043;-36
2023/03/11 01:03:31;;;;;;;0.40;0.40;;;;;;;17.39;45.66;100280.03;5094057;28;20276;-36
2023/03/11 01:05:56;;;;;;;0.40;0.40;;;;;;;17.41;45.47;100283.34;5094517;28;20109;-36
2023/03/11 01:08:22;;;;;;;0.35;0.35;;;;;;;17.40;45.65;100271.50;5094088;28;20047;-36
2023/03/11 01:10:48;;;;;;;0.40;0.40;;;;;;;17.40;45.82;100282.53;5094340;28;20047;-36
2023/03/11 01:13:14;;;;;;;0.40;0.40;;;;;;;17.40;45.62;100290.78;5094318;28;20375;-36
2023/03/11 01:15:39;;;;;;;0.63;0.43;;;;;;;17.39;45.54;100294.63;5079009;28;20060;-36
2023/03/11 01:18:05;;;;;;;0.38;0.38;;;;;;;17.41;45.74;100286.09;5115356;28;20078;-36
2023/03/11 01:20:31;;;;;;;0.40;0.40;;;;;;;17.40;45.49;100285.28;5083020;28;20100;-37
2023/03/11 01:22:57;;;;;;;0.30;0.30;;;;;;;17.40;45.67;100289.94;5099435;28;20059;-36
2023/03/11 01:25:23;;;;;;;0.40;0.40;;;;;;;17.40;45.86;100290.78;5117758;28;20504;-36
2023/03/11 01:27:49;;;;;;;0.30;0.30;;;;;;;17.40;45.53;100296.28;5099427;28;20127;-37
2023/03/11 01:30:20;;;;;;;0.40;0.40;;;;;;;17.41;45.55;100297.09;5099493;28;20043;-36
2023/03/11 01:32:45;;;;;;;0.40;0.40;;;;;;;17.40;45.72;100296.28;5098910;28;20040;-36
2023/03/11 01:35:13;;;;;;;0.38;0.38;;;;;;;17.40;45.67;100296.28;5116905;28;20062;-36
2023/03/11 01:37:39;;;;;;;1.50;0.68;;;;;;;17.40;45.70;100301.78;5117521;28;20047;-36
2023/03/11 01:40:07;;;;;;;0.30;0.30;;;;;;;17.41;45.53;100308.94;5117639;28;20050;-36
2023/03/11 01:42:33;;;;;;;0.40;0.40;;;;;;;17.41;45.83;100310.88;5099199;28;20112;-36
2023/03/11 01:44:58;;;;;;;0.40;0.40;;;;;;;17.40;45.71;100310.03;5117882;28;20051;-36
2023/03/11 01:47:36;;;;;;;0.30;0.30;;;;;;;17.40;45.49;100312.78;5117049;28;20049;-36
2023/03/11 01:50:04;;;;;;;0.30;0.30;;;;;;;17.40;45.69;100309.19;5117894;28;20100;-36
2023/03/11 01:52:30;;;;;;;;;;;;;;;17.39;45.45;100315.81;5099338;28;20054;-36
2023/03/11 01:54:55;;;;;;;0.40;0.40;;;;;;;17.38;45.73;100319.69;5117336;28;19920;-36
2023/03/11 01:57:21;;;;;;;0.40;0.40;;;;;;;17.40;45.80;100322.94;5116927;28;20490;-36
2023/03/11 01:59:51;;;;;;;0.30;0.30;;;;;;;17.40;45.64;100325.72;5117800;28;20369;-36
2023/03/11 02:02:20;;;;;;;0.40;0.40;;;;;;;17.40;45.69;100318.31;5098146;28;20066;-36
2023/03/11 02:04:46;;;;;;;0.40;0.40;;;;;;;17.40;45.98;100329.31;5081641;28;20525;-36
2023/03/11 02:07:13;;;;;;;0.40;0.40;;;;;;;17.39;45.86;100330.41;5116442;28;20145;-36
2023/03/11 02:09:38;;;;;;;0.40;0.40;;;;;;;17.39;45.58;100324.88;5117562;28;20112;-36
2023/03/11 02:12:05;;;;;;;0.40;0.40;;;;;;;17.39;45.54;100324.88;5117463;28;20448;-36
2023/03/11 02:14:31;;;;;;;0.40;0.40;;;;;;;17.40;45.52;100320.22;5117273;28;20043;-36
2023/03/11 02:16:58;;;;;;;0.40;0.40;;;;;;;17.40;45.62;100329.31;5098760;28;20079;-36
2023/03/11 02:19:40;;;;;;;0.30;0.30;;;;;;;17.40;45.56;100328.47;5116745;28;20046;-37
2023/03/11 02:22:06;;;;;;;0.40;0.40;;;;;;;17.40;45.81;100323.81;5099611;28;20054;-36
2023/03/11 02:24:57;;;;;;;0.30;0.30;;;;;;;17.40;45.70;100323.81;5116817;27;20078;-36
2023/03/11 02:27:25;;;;;;;0.30;0.30;;;;;;;17.39;45.86;100322.13;5101341;28;20266;-36
2023/03/11 02:29:52;;;;;;;0.30;0.30;;;;;;;17.39;45.65;100327.66;5116921;28;20051;-36
2023/03/11 02:32:18;;;;;;;0.65;0.57;;;;;;;17.40;45.79;100322.94;5116756;27;20518;-36
2023/03/11 02:34:44;;;;;;;0.30;0.30;;;;;;;17.39;45.82;100326.81;5117088;28;20047;-36
2023/03/11 02:37:12;;;;;;;0.32;0.32;;;;;;;17.40;45.88;100322.94;5116004;28;20460;-36
2023/03/11 02:39:41;;;;;;;0.40;0.40;;;;;;;17.39;45.62;100335.91;5098855;28;20044;-37
2023/03/11 02:42:12;;;;;;;0.40;0.40;;;;;;;17.40;45.85;100334.81;5084321;28;20060;-36
2023/03/11 02:44:39;;;;;;;0.30;0.30;;;;;;;17.40;45.48;100339.47;5098819;28;20071;-36
2023/03/11 02:47:05;;;;;;;0.40;0.40;;;;;;;17.40;45.62;100336.72;5101578;27;20494;-36
2023/03/11 02:49:31;;;;;;;0.40;0.40;;;;;;;17.39;45.73;100341.41;5096377;28;20048;-36
2023/03/11 02:51:57;;;;;;;0.77;0.57;;;;;;;17.38;45.70;100337.00;5096766;28;20503;-36
2023/03/11 02:54:22;;;;;;;0.30;0.30;;;;;;;17.38;45.81;100337.00;5096380;28;20058;-36
2023/03/11 02:56:48;;;;;;;0.30;0.30;;;;;;;17.40;45.79;100334.81;5095890;28;20048;-36
2023/03/11 02:59:14;;;;;;;0.30;0.30;;;;;;;17.39;45.73;100340.59;5096084;28;20551;-36
2023/03/11 03:01:39;;;;;;;0.40;0.40;;;;;;;17.40;45.96;100337.56;5097219;28;20051;-36
2023/03/11 03:04:05;;;;;;;0.30;0.30;;;;;;;17.39;45.63;100341.41;5116568;28;20047;-37
2023/03/11 03:06:31;;;;;;;0.40;0.40;;;;;;;17.39;45.50;100346.09;5116575;28;20043;-36
2023/03/11 03:08:57;;;;;;;0.40;0.40;;;;;;;17.39;45.45;100349.66;5115597;28;20054;-36
2023/03/11 03:11:22;;;;;;;0.50;0.50;;;;;;;17.39;45.43;100341.41;5098022;28;20047;-36
2023/03/11 03:13:48;;;;;;;0.30;0.30;;;;;;;17.39;45.46;100344.16;5117086;28;20047;-36
2023/03/11 03:16:14;;;;;;;0.30;0.30;;;;;;;17.39;45.70;100346.91;5116222;28;20414;-36
2023/03/11 03:18:39;;;;;;;0.30;0.30;;;;;;;17.39;45.44;100349.66;5116317;28;20046;-36
2023/03/11 03:21:05;;;;;;;0.40;0.40;;;;;;;17.38;45.62;100353.53;5115699;28;20047;-37
2023/03/11 03:23:34;;;;;;;0.40;0.40;;;;;;;17.39;45.58;100355.16;5116405;28;20059;-36
2023/03/11 03:26:00;;;;;;;;;;;;;;;17.39;45.71;100355.16;5116616;28;20051;-37
2023/03/11 03:28:25;;;;;;;0.40;0.40;;;;;;;17.38;45.58;100359.03;5116322;28;19950;-36
2023/03/11 03:30:51;;;;;;;2.63;0.50;;;;;;;17.39;45.48;100362.59;5115978;27;20043;-36
2023/03/11 03:33:17;;;;;;;0.30;0.30;;;;;;;17.40;45.60;100358.75;5115668;28;20088;-37
2023/03/11 03:35:44;;;;;;;0.40;0.40;;;;;;;17.39;45.40;100362.59;5101840;28;20079;-36
2023/03/11 03:38:10;;;;;;;0.30;0.30;;;;;;;17.39;45.44;100368.94;5092366;28;20130;-36
2023/03/11 03:40:36;;;;;;;0.30;0.30;;;;;;;17.38;45.53;100374.72;5114435;28;20494;-36
2023/03/11 03:43:02;;;;;;;0.30;0.30;;;;;;;17.39;45.50;100371.69;5114033;28;20083;-36
2023/03/11 03:45:27;;;;;;;0.40;0.40;;;;;;;17.39;45.46;100379.13;5115534;28;20100;-37
2023/03/11 03:47:53;;;;;;;0.40;0.40;;;;;;;17.39;45.66;100387.38;5115470;28;20091;-36
2023/03/11 03:50:19;;;;;;;0.40;0.40;;;;;;;17.38;45.61;100381.06;5115528;28;20152;-36
2023/03/11 03:52:45;;;;;;;0.32;0.32;;;;;;;17.39;45.47;100384.63;5116028;28;20086;-36
2023/03/11 03:55:10;;;;;;;0.40;0.40;;;;;;;17.39;45.75;100384.63;5097963;28;20036;-36
2023/03/11 03:57:36;;;;;;;0.40;0.40;;;;;;;17.40;45.77;100397.28;5115176;28;20503;-36
2023/03/11 04:00:03;;;;;;;0.30;0.30;;;;;;;17.38;45.70;100397.56;5115488;28;20050;-36
2023/03/11 04:02:30;;;;;;;0.40;0.40;;;;;;;17.39;45.38;100403.88;5104900;27;20053;-36
2023/03/11 04:04:56;;;;;;;0.50;0.50;;;;;;;17.39;45.59;100401.13;5117786;27;20047;-36
2023/03/11 04:07:21;;;;;;;0.40;0.40;;;;;;;17.40;45.65;100408.28;5099537;28;20104;-36
2023/03/11 04:09:47;;;;;;;0.50;0.50;;;;;;;17.38;45.58;100403.06;5096886;28;20043;-36
2023/03/11 04:12:14;;;;;;;0.30;0.30;;;;;;;17.39;45.69;100412.16;5115038;28;20825;-36
2023/03/11 04:14:40;;;;;;;0.30;0.30;;;;;;;17.39;45.45;100412.97;5080375;28;20054;-36
2023/03/11 04:17:09;;;;;;;0.32;0.32;;;;;;;17.40;45.51;100419.28;5115718;28;20066;-36
2023/03/11 04:19:34;;;;;;;;;;;;;;;17.38;45.53;100422.34;5115818;28;20534;-36
2023/03/11 04:22:00;;;;;;;0.30;0.30;;;;;;;17.38;45.46;100424.28;5114641;28;20438;-36
2023/03/11 04:24:26;;;;;;;0.30;0.30;;;;;;;17.38;45.58;100425.09;5115199;28;20050;-36
2023/03/11 04:26:51;;;;;;;0.40;0.40;;;;;;;17.39;45.35;100425.91;5115811;28;20572;-36
2023/03/11 04:29:17;;;;;;;0.40;0.40;;;;;;;17.39;45.75;100431.41;5115033;28;20127;-36
2023/03/11 04:31:43;;;;;;;0.32;0.32;;;;;;;17.38;45.45;100430.59;5114843;27;20053;-37
2023/03/11 04:34:08;;;;;;;0.30;0.30;;;;;;;17.39;45.64;100428.66;5114467;27;20051;-36
2023/03/11 04:36:34;;;;;;;0.35;0.35;;;;;;;17.39;45.39;100425.91;5076996;28;20077;-36
2023/03/11 04:39:00;;;;;;;0.40;0.40;;;;;;;17.38;45.70;100433.34;5079103;28;20055;-36
2023/03/11 04:41:26;;;;;;;0.30;0.30;;;;;;;17.39;45.64;100440.50;5114983;28;20561;-36
2023/03/11 04:43:51;;;;;;;0.30;0.30;;;;;;;17.38;45.66;100443.53;5113457;28;20062;-36
2023/03/11 04:46:17;;;;;;;0.30;0.30;;;;;;;17.38;45.63;100438.84;5114219;28;20410;-36
2023/03/11 04:48:43;;;;;;;0.30;0.30;;;;;;;17.37;45.29;100441.91;5100268;28;20078;-36
2023/03/11 04:51:08;;;;;;;0.30;0.30;;;;;;;17.39;45.57;100445.19;5094523;28;20048;-36
2023/03/11 04:53:34;;;;;;;0.30;0.30;;;;;;;17.39;45.61;100446.00;5094479;28;20052;-36
2023/03/11 04:56:00;;;;;;;0.30;0.30;;;;;;;17.38;45.35;100458.13;5094761;28;20035;-36
2023/03/11 04:58:25;;;;;;;0.30;0.30;;;;;;;17.39;45.70;100454.25;5076399;28;20047;-36
2023/03/11 05:00:51;;;;;;;0.40;0.40;;;;;;;17.38;45.34;100460.88;5094362;28;20048;-36
2023/03/11 05:03:17;;;;;;;0.38;0.38;;;;;;;17.38;45.49;100460.06;5124130;27;20616;-37
2023/03/11 05:05:43;;;;;;;0.30;0.30;;;;;;;17.38;45.49;100462.81;5131815;27;20047;-36
2023/03/11 05:08:09;;;;;;;0.30;0.30;;;;;;;17.37;45.46;100456.47;5114615;28;20074;-36
2023/03/11 05:10:35;;;;;;;0.30;0.30;;;;;;;17.37;45.64;100462.00;5115060;28;20406;-36
2023/03/11 05:13:01;;;;;;;0.40;0.40;;;;;;;17.39;45.34;100465.28;5114802;28;20075;-36
2023/03/11 05:15:29;;;;;;;0.30;0.30;;;;;;;17.38;45.48;100463.63;5096379;28;20096;-36
2023/03/11 05:17:55;;;;;;;0.30;0.30;;;;;;;17.38;45.53;100458.13;5097350;28;20077;-36
2023/03/11 05:20:20;;;;;;;0.40;0.40;;;;;;;17.39;45.47;100464.44;5114957;28;20258;-36
2023/03/11 05:22:46;;;;;;;0.40;0.40;;;;;;;17.39;45.34;100467.19;5114392;28;20043;-36
2023/03/11 05:25:12;;;;;;;0.30;0.30;;;;;;;17.37;45.36;100470.25;5114441;28;20654;-37
2023/03/11 05:27:37;;;;;;;0.30;0.30;;;;;;;17.38;45.44;100468.31;5114437;28;20424;-36
2023/03/11 05:30:04;;;;;;;0.30;0.30;;;;;;;17.38;45.48;100471.06;5114824;28;20159;-36
2023/03/11 05:32:29;;;;;;;0.30;0.30;;;;;;;17.38;45.54;100471.06;5095769;28;20047;-36
2023/03/11 05:34:55;;;;;;;0.40;0.40;;;;;;;17.39;45.53;100470.78;5128658;27;20224;-36
2023/03/11 05:37:21;;;;;;;0.40;0.40;;;;;;;17.38;45.43;100477.38;5100686;27;20726;-36
2023/03/11 05:39:46;;;;;;;0.40;0.40;;;;;;;17.39;45.45;100472.72;5094087;28;20048;-36
2023/03/11 05:42:12;;;;;;;0.40;0.40;;;;;;;17.39;45.38;100483.72;5108183;28;20047;-36
2023/03/11 05:44:38;;;;;;;0.40;0.40;;;;;;;17.39;45.44;100480.97;5114018;28;20070;-36
2023/03/11 05:47:04;;;;;;;0.40;0.40;;;;;;;17.38;45.44;100479.31;5102883;27;20047;-36
2023/03/11 05:49:29;;;;;;;0.40;0.40;;;;;;;17.38;45.27;100488.41;5112860;28;20058;-36
2023/03/11 05:51:55;;;;;;;0.65;0.55;;;;;;;17.39;45.50;100486.47;5114120;27;20116;-37
2023/03/11 05:54:23;;;;;;;0.40;0.40;;;;;;;17.38;45.36;100490.34;5113955;28;20447;-36
2023/03/11 05:56:49;;;;;;;0.32;0.32;;;;;;;17.37;45.41;100486.75;5101608;28;20906;-36
2023/03/11 05:59:16;;;;;;;0.30;0.30;;;;;;;17.38;45.04;100488.41;5093690;28;20051;-36
2023/03/11 06:01:43;;;;;;;0.40;0.40;;;;;;;17.39;45.38;100487.28;5078275;28;20517;-36
2023/03/11 06:04:08;;;;;;;0.40;0.40;;;;;;;17.38;45.28;100488.41;5096650;28;20495;-36
2023/03/11 06:06:34;;;;;;;0.40;0.40;;;;;;;17.38;45.47;100496.66;5088912;28;20092;-36
2023/03/11 06:09:00;;;;;;;0.30;0.30;;;;;;;17.39;45.28;100501.06;5116936;28;20244;-36
2023/03/11 06:11:26;;;;;;;0.40;0.40;;;;;;;17.39;45.49;100514.00;5117517;28;20127;-36
2023/03/11 06:13:53;;;;;;;0.40;0.40;;;;;;;17.39;45.45;100514.00;5117286;28;20051;-36
2023/03/11 06:16:20;;;;;;;0.30;0.30;;;;;;;17.38;45.23;100515.09;5098871;28;20455;-36
2023/03/11 06:18:46;;;;;;;0.30;0.30;;;;;;;17.38;45.53;100512.34;5099076;28;20039;-36
2023/03/11 06:21:20;;;;;;;0.40;0.40;;;;;;;17.37;45.39;100508.78;5117777;28;20413;-36
2023/03/11 06:23:46;;;;;;;0.30;0.30;;;;;;;17.38;45.27;100510.41;5098628;28;20422;-36
2023/03/11 06:26:14;;;;;;;0.40;0.40;;;;;;;17.38;45.42;100515.94;5116767;28;20769;-36
2023/03/11 06:28:41;;;;;;;;;;;;;;;17.39;45.48;100516.75;5098966;28;20411;-36
2023/03/11 06:31:10;;;;;;;0.30;0.30;;;;;;;17.37;45.49;100525.28;5117727;27;19919;-36
2023/03/11 06:33:36;;;;;;;0.40;0.40;;;;;;;17.38;45.61;100528.88;5113496;28;20664;-36
2023/03/11 06:36:03;;;;;;;0.40;0.40;;;;;;;17.37;45.33;100528.03;5109810;28;20054;-36
2023/03/11 06:38:29;;;;;;;0.30;0.30;;;;;;;17.38;45.34;100531.63;5078020;28;20081;-36
2023/03/11 06:41:03;;;;;;;0.30;0.30;;;;;;;17.39;45.48;100530.50;5078889;28;20055;-36
2023/03/11 06:43:30;;;;;;;0.30;0.30;;;;;;;17.38;45.43;100535.19;5106458;28;20078;-36
2023/03/11 06:45:56;;;;;;;0.40;0.40;;;;;;;17.37;45.36;100552.81;5098236;28;20047;-36
2023/03/11 06:48:22;;;;;;;0.40;0.40;;;;;;;17.38;45.44;100542.63;5098414;28;20050;-37
2023/03/11 06:50:56;;;;;;;0.40;0.40;;;;;;;17.38;45.57;100548.13;5116559;28;20075;-36
2023/03/11 06:53:22;;;;;;;0.30;0.30;;;;;;;17.38;45.26;100551.72;5117123;27;20119;-36
2023/03/11 06:56:09;;;;;;;0.40;0.40;;;;;;;17.38;45.49;100559.16;5113233;27;20039;-36
2023/03/11 06:58:36;;;;;;;0.30;0.30;;;;;;;17.38;45.38;100568.22;5081126;28;20035;-36
2023/03/11 07:01:12;;;;;;;0.38;0.38;;;;;;;17.37;45.29;100574.03;5078193;28;20083;-36
2023/03/11 07:03:38;;;;;;;0.50;0.50;;;;;;;17.38;45.43;100578.41;5061973;28;20047;-36
2023/03/11 07:06:04;;;;;;;0.40;0.40;;;;;;;17.38;45.59;100589.44;5077617;28;20048;-36
2023/03/11 07:08:32;;;;;;;0.30;0.30;;;;;;;17.38;45.21;100598.50;5073229;28;20047;-36
2023/03/11 07:11:03;;;;;;;0.32;0.32;;;;;;;17.38;45.54;100597.69;5116343;27;20051;-37
2023/03/11 07:13:29;;;;;;;0.40;0.40;;;;;;;17.38;45.18;100589.44;5098711;28;20043;-36
2023/03/11 07:16:00;;;;;;;0.40;0.40;;;;;;;17.38;45.30;100590.25;5116302;28;20043;-36
2023/03/11 07:18:25;;;;;;;0.40;0.40;;;;;;;17.38;45.31;100603.19;5116131;28;20116;-36
2023/03/11 07:20:51;;;;;;;0.30;0.30;;;;;;;17.38;45.30;100606.75;5116338;28;20487;-36
2023/03/11 07:23:17;;;;;;;0.45;0.45;;;;;;;17.37;45.41;100605.13;5116136;28;20055;-37
2023/03/11 07:25:45;;;;;;;0.30;0.30;;;;;;;17.39;45.33;100613.09;5115936;28;20295;-36
2023/03/11 07:28:11;;;;;;;0.30;0.30;;;;;;;17.38;45.27;100614.19;5097605;28;20642;-36
2023/03/11 07:30:38;;;;;;;0.30;0.30;;;;;;;17.38;45.18;100622.47;5115493;28;20669;-36
2023/03/11 07:33:04;;;;;;;0.30;0.30;;;;;;;17.38;45.31;100631.53;5115606;28;20039;-36
2023/03/11 07:35:29;;;;;;;0.30;0.30;;;;;;;17.38;45.17;100627.97;5122544;27;20074;-36
2023/03/11 07:37:55;;;;;;;0.30;0.30;;;;;;;17.37;45.27;100632.66;5076508;28;20047;-36
2023/03/11 07:40:21;;;;;;;0.30;0.30;;;;;;;17.37;45.20;100634.56;5095359;28;20338;-36
2023/03/11 07:42:47;;;;;;;0.40;0.40;;;;;;;17.37;45.28;100637.31;5095107;28;20419;-37
2023/03/11 07:45:12;;;;;;;0.32;0.32;;;;;;;17.39;45.48;100641.44;5105069;28;20829;-37
2023/03/11 07:54:48;;;;;;;0.40;0.40;;;;;;;17.36;45.36;100654.91;5095613;28;20085;-36
2023/03/11 07:57:16;;;;;;;0.40;0.40;;;;;;;17.35;45.37;100654.09;5095390;28;20043;-36
2023/03/11 07:59:41;;;;;;;0.30;0.30;;;;;;;17.37;45.41;100668.44;5095520;28;20082;-36
2023/03/11 08:02:08;;;;;;;0.40;0.40;;;;;;;17.36;45.13;100666.78;5094925;28;20055;-36
2023/03/11 08:04:34;;;;;;;0.40;0.40;;;;;;;17.38;45.33;100661.00;5076769;28;20055;-36
2023/03/11 08:07:00;;;;;;;0.30;0.30;;;;;;;17.38;45.17;100664.56;5109143;27;20175;-36
2023/03/11 08:09:25;;;;;;;0.30;0.30;;;;;;;17.37;45.13;100657.41;5115374;28;20047;-36
2023/03/11 08:11:51;;;;;;;0.40;0.40;;;;;;;17.37;45.26;100665.69;5115460;28;20047;-36
2023/03/11 08:14:17;;;;;;;0.30;0.30;;;;;;;17.37;45.38;100665.69;5115734;28;20252;-36
2023/03/11 08:16:42;;;;;;;0.30;0.30;;;;;;;17.37;45.29;100670.34;5116208;28;20078;-36
2023/03/11 08:19:11;;;;;;;0.40;0.40;;;;;;;17.38;45.54;100672.00;5097397;28;20051;-36
2023/03/11 08:21:36;;;;;;;0.30;0.30;;;;;;;17.38;45.44;100674.75;5097156;28;20130;-36
2023/03/11 08:24:02;;;;;;;0.40;0.40;;;;;;;17.37;45.33;100679.44;5114445;27;20047;-36
2023/03/11 08:26:31;;;;;;;0.30;0.30;;;;;;;17.38;45.22;100674.75;5115738;28;20357;-36
2023/03/11 08:28:58;;;;;;;0.40;0.40;;;;;;;17.36;45.30;100666.78;5114799;28;20130;-36
2023/03/11 08:31:26;;;;;;;0.40;0.40;;;;;;;17.37;45.36;100671.19;5110105;28;20043;-36
2023/03/11 08:33:53;;;;;;;;;;;;;;;17.36;45.35;100677.78;5115012;27;20479;-36
2023/03/11 08:36:19;;;;;;;0.40;0.40;;;;;;;17.37;45.33;100678.63;5114996;28;19919;-37
2023/03/11 08:38:45;;;;;;;0.30;0.30;;;;;;;17.36;45.18;100676.94;5095985;28;20074;-36
2023/03/11 08:41:11;;;;;;;0.40;0.40;;;;;;;17.36;45.38;100679.69;5114772;28;20091;-36
2023/03/11 08:43:37;;;;;;;0.30;0.30;;;;;;;17.37;45.20;100676.69;5096231;28;20058;-36
2023/03/11 08:46:05;;;;;;;0.30;0.30;;;;;;;17.38;45.17;100683.00;5114765;28;20510;-36
2023/03/11 08:48:31;;;;;;;0.30;0.30;;;;;;;17.37;45.35;100681.38;5089539;28;20578;-36
2023/03/11 08:50:57;;;;;;;0.30;0.30;;;;;;;17.38;45.31;100688.53;5085248;28;20071;-37
2023/03/11 08:53:23;;;;;;;0.30;0.30;;;;;;;17.38;45.48;100688.53;5114253;28;20131;-36
2023/03/11 08:55:50;;;;;;;0.30;0.30;;;;;;;17.37;45.33;100692.38;5111258;27;20047;-36
2023/03/11 08:58:15;;;;;;;0.30;0.30;;;;;;;17.37;45.31;100693.19;5094664;28;20078;-36
2023/03/11 09:00:41;;;;;;;0.40;0.40;;;;;;;17.37;45.48;100686.88;5094088;28;20047;-36
2023/03/11 09:03:07;;;;;;;0.30;0.30;;;;;;;17.38;45.19;100697.59;5093748;28;20093;-36
2023/03/11 09:05:32;;;;;;;0.43;0.43;;;;;;;17.37;45.27;100697.88;5095481;28;20047;-36
2023/03/11 09:07:58;;;;;;;0.30;0.30;;;;;;;17.37;45.20;100695.13;5114788;28;20051;-36
2023/03/11 09:10:24;;;;;;;0.30;0.30;;;;;;;17.38;45.22;100694.03;5114361;28;20100;-36
2023/03/11 09:12:49;;;;;;;0.30;0.30;;;;;;;17.37;45.51;100695.13;5113991;28;20043;-36
2023/03/11 09:15:15;;;;;;;0.30;0.30;;;;;;;17.37;45.41;100687.69;5114724;28;20043;-36
2023/03/11 09:17:41;;;;;;;0.30;0.30;;;;;;;17.37;45.28;100693.19;5096188;28;20443;-36
2023/03/11 09:20:07;;;;;;;0.30;0.30;;;;;;;17.37;45.21;100686.88;5115148;28;20050;-36
2023/03/11 09:22:33;;;;;;;0.30;0.30;;;;;;;17.37;45.35;100692.38;5114470;28;20043;-36
2023/03/11 09:24:58;;;;;;;0.30;0.30;;;;;;;17.36;45.22;100699.81;5114545;28;20457;-36
2023/03/11 09:27:24;;;;;;;0.30;0.30;;;;;;;17.35;45.29;100692.63;5114755;28;20051;-36
2023/03/11 09:29:50;;;;;;;0.20;0.20;;;;;;;17.37;45.30;100695.13;5114951;28;20043;-36
2023/03/11 09:32:15;;;;;;;0.30;0.30;;;;;;;17.37;45.27;100704.22;5113540;28;20111;-36
2023/03/11 09:34:41;;;;;;;0.32;0.32;;;;;;;17.38;45.27;100699.53;5127084;27;20387;-36
2023/03/11 09:37:07;;;;;;;0.30;0.30;;;;;;;17.37;45.19;100704.22;5109498;27;20047;-36
2023/03/11 09:39:33;;;;;;;0.40;0.40;;;;;;;17.37;45.21;100700.63;5118627;28;20116;-37
2023/03/11 09:42:19;;;;;;;0.30;0.30;;;;;;;17.37;45.33;100697.88;5118428;28;20579;-36
2023/03/11 09:45:02;;;;;;;0.30;0.30;;;;;;;17.36;45.30;100705.31;5102786;28;20047;-36
2023/03/11 09:47:57;;;;;;;0.30;0.30;;;;;;;17.37;45.46;100706.16;5099480;28;20047;-36
2023/03/11 09:50:31;;;;;;;0.30;0.30;;;;;;;17.37;45.31;100706.16;5104389;28;20110;-36
2023/03/11 09:53:21;;;;;;;0.30;0.30;;;;;;;17.38;45.42;100711.38;5102263;28;20054;-36
2023/03/11 09:55:55;;;;;;;0.40;0.40;;;;;;;17.37;45.27;100720.72;5099514;28;20273;-36
2023/03/11 10:01:26;;;;;;;0.30;0.30;;;;;;;17.36;45.27;100723.75;5174932;27;20270;-36
2023/03/11 10:03:55;;;;;;;0.30;0.30;;;;;;;17.36;45.32;100724.59;5151902;27;20049;-36
2023/03/11 10:06:24;;;;;;;0.30;0.30;;;;;;;17.38;45.36;100732.56;5132284;27;20107;-36
2023/03/11 10:08:58;;;;;;;0.30;0.30;;;;;;;17.36;45.28;100732.00;5113227;27;20050;-36
2023/03/11 10:11:56;;;;;;;0.30;0.30;;;;;;;17.36;45.20;100734.75;5132317;27;20071;-36
2023/03/11 10:15:01;;;;;;;0.40;0.40;;;;;;;17.36;45.20;100732.84;5116290;27;20074;-36
2023/03/11 10:17:57;;;;;;;0.30;0.30;;;;;;;17.35;45.34;100739.44;5105271;27;20051;-36
2023/03/11 10:20:56;;;;;;;0.30;0.30;;;;;;;17.37;45.22;100741.94;5100891;27;20054;-36
2023/03/11 10:23:56;;;;;;;0.40;0.40;;;;;;;17.37;45.27;100750.19;5116683;27;20050;-36
2023/03/11 10:26:44;;;;;;;0.30;0.30;;;;;;;17.36;45.24;100745.75;5115873;27;20130;-36
2023/03/11 10:29:28;;;;;;;0.30;0.30;;;;;;;17.37;45.23;100747.44;5116608;27;20231;-36
2023/03/11 10:31:59;;;;;;;0.30;0.30;;;;;;;17.36;45.31;100749.38;5102255;28;20051;-36
2023/03/11 10:34:33;;;;;;;0.40;0.40;;;;;;;17.36;45.27;100754.88;5130095;27;20558;-36
2023/03/11 10:37:04;;;;;;;0.40;0.40;;;;;;;17.36;45.34;100748.50;5107368;27;20074;-36
2023/03/11 10:39:31;;;;;;;0.40;0.40;;;;;;;17.37;45.50;100758.44;5110360;27;20051;-36
2023/03/11 10:41:59;;;;;;;0.20;0.20;;;;;;;17.36;45.37;100752.13;5111563;28;20076;-36
2023/03/11 10:44:33;;;;;;;0.30;0.30;;;;;;;17.37;45.11;100747.44;5092976;28;20128;-36
2023/03/11 10:46:59;;;;;;;0.32;0.32;;;;;;;17.37;45.49;100752.94;5092119;28;20419;-36
2023/03/11 10:49:25;;;;;;;0.35;0.35;;;;;;;17.36;45.37;100754.88;5111228;27;20630;-36
2023/03/11 10:51:52;;;;;;;0.30;0.30;;;;;;;17.36;45.38;100748.50;5129988;27;20047;-36
2023/03/11 10:54:36;;;;;;;0.40;0.40;;;;;;;17.37;45.10;100748.25;5132106;27;20454;-36
2023/03/11 10:57:18;;;;;;;0.60;0.60;;;;;;;17.35;45.11;100742.19;5113576;27;20467;-36
2023/03/11 10:59:49;;;;;;;0.40;0.40;;;;;;;17.36;45.22;100751.25;5114790;27;20063;-36
2023/03/11 11:02:24;;;;;;;0.40;0.40;;;;;;;17.36;45.49;100745.75;5096216;27;20047;-36
2023/03/11 11:08:12;;;;;;;0.40;0.40;;;;;;;17.37;45.09;100742.75;5173451;27;20116;-36
2023/03/11 11:10:50;;;;;;;0.30;0.30;;;;;;;17.37;45.21;100747.44;5117433;27;20230;-36
2023/03/11 11:13:18;;;;;;;0.30;0.30;;;;;;;17.37;45.46;100750.19;5135101;27;20763;-36
2023/03/11 11:16:04;;;;;;;0.30;0.30;;;;;;;17.36;45.30;100741.09;5134256;27;20039;-36
2023/03/11 11:18:36;;;;;;;0.40;0.40;;;;;;;17.36;45.39;100745.75;5117242;27;20038;-36
2023/03/11 11:21:14;;;;;;;0.30;0.30;;;;;;;17.36;45.13;100748.50;5134331;27;20395;-36
2023/03/11 11:23:42;;;;;;;0.30;0.30;;;;;;;17.37;45.31;100761.19;5134963;27;20467;-36
2023/03/11 11:26:19;;;;;;;0.40;0.40;;;;;;;17.37;45.25;100769.47;5152293;27;20051;-36
2023/03/11 11:28:45;;;;;;;0.30;0.30;;;;;;;17.36;45.14;100760.38;5153138;27;20054;-37
2023/03/11 11:31:21;;;;;;;0.30;0.30;;;;;;;17.37;45.42;100758.44;5148141;27;20367;-36
2023/03/11 11:33:50;;;;;;;0.30;0.30;;;;;;;17.37;45.29;100758.44;5113551;27;20524;-36
2023/03/11 11:36:16;;;;;;;0.40;0.40;;;;;;;17.36;45.33;100768.63;5119753;27;20055;-36
2023/03/11 11:38:43;;;;;;;0.30;0.30;;;;;;;17.36;45.32;100765.03;5112918;27;20248;-36
2023/03/11 11:41:14;;;;;;;0.32;0.32;;;;;;;17.36;45.25;100759.53;5132169;27;20502;-36
2023/03/11 11:43:47;;;;;;;0.40;0.40;;;;;;;17.36;45.15;100754.88;5113744;27;20103;-36
2023/03/11 11:46:20;;;;;;;0.30;0.30;;;;;;;17.36;45.44;100749.38;5130123;27;20055;-36